createdAt,value
2016-09-04T00:00:48.813Z,92.59
2016-09-04T00:01:48.783Z,92.4
2016-09-04T00:02:48.073Z,92.3
2016-09-04T00:03:48.717Z,92.49
2016-09-04T00:04:48.688Z,92.59
2016-09-04T00:05:47.955Z,92.59
2016-09-04T00:06:48.619Z,92.11
2016-09-04T00:07:48.596Z,92.88
2016-09-04T00:08:47.859Z,92.11
2016-09-04T00:09:48.523Z,92.97
2016-09-04T00:10:48.491Z,92.97
2016-09-04T00:11:48.456Z,92.97
2016-09-04T00:12:48.428Z,92.78
2016-09-04T00:13:48.389Z,92.49
2016-09-04T00:14:48.358Z,92.88
2016-09-04T00:15:47.631Z,92.97
2016-09-04T00:16:48.297Z,92.88
2016-09-04T00:17:48.264Z,93.07
2016-09-04T00:18:47.537Z,92.88
2016-09-04T00:19:47.500Z,92.97
2016-09-04T00:20:47.472Z,93.55
2016-09-04T00:21:47.436Z,93.55
2016-09-04T00:22:48.100Z,93.64
2016-09-04T00:23:47.374Z,93.26
2016-09-04T00:24:48.044Z,93.35
2016-09-04T00:25:48.004Z,93.16
2016-09-04T00:26:47.275Z,93.64
2016-09-04T00:27:47.940Z,93.26
2016-09-04T00:28:47.914Z,93.5
2016-09-04T00:29:47.876Z,93.45
2016-09-04T00:30:47.843Z,93.4
2016-09-04T00:31:47.805Z,93.35
2016-09-04T00:32:47.783Z,93.16
2016-09-04T00:33:47.741Z,93.5
2016-09-04T00:34:47.710Z,93.5
2016-09-04T00:35:47.678Z,93.4
2016-09-04T00:36:47.645Z,93.88
2016-09-04T00:37:47.614Z,93.5
2016-09-04T00:38:46.888Z,93.79
2016-09-04T00:39:47.547Z,93.5
2016-09-04T00:40:47.514Z,93.69
2016-09-04T00:41:47.480Z,93.31
2016-09-04T00:42:47.445Z,93.5
2016-09-04T00:43:47.419Z,93.31
2016-09-04T00:44:47.385Z,93.31
2016-09-04T00:45:47.356Z,93.4
2016-09-04T00:46:47.315Z,93.6
2016-09-04T00:47:47.284Z,93.79
2016-09-04T00:48:47.251Z,93.69
2016-09-04T00:49:47.218Z,93.88
2016-09-04T00:50:47.190Z,93.79
2016-09-04T00:51:47.163Z,93.6
2016-09-04T00:52:47.118Z,94.07
2016-09-04T00:53:47.090Z,93.88
2016-09-04T00:54:47.056Z,94.17
2016-09-04T00:55:47.021Z,93.88
2016-09-04T00:56:46.989Z,94.46
2016-09-04T00:57:46.953Z,94.46
2016-09-04T00:58:46.925Z,94.55
2016-09-04T00:59:46.193Z,94.17
2016-09-04T01:00:46.859Z,94.46
2016-09-04T01:01:46.826Z,94.17
2016-09-04T01:02:46.798Z,94.26
2016-09-04T01:03:46.765Z,94.07
2016-09-04T01:04:46.724Z,94.17
2016-09-04T01:05:46.693Z,94.26
2016-09-04T01:06:46.660Z,94.36
2016-09-04T01:07:46.629Z,94.65
2016-09-04T01:08:46.594Z,94.93
2016-09-04T01:09:46.563Z,94.84
2016-09-04T01:10:45.835Z,94.84
2016-09-04T01:11:46.495Z,94.93
2016-09-04T01:12:46.466Z,95.03
2016-09-04T01:13:46.429Z,95.03
2016-09-04T01:14:46.397Z,95.03
2016-09-04T01:15:46.365Z,94.55
2016-09-04T01:16:46.330Z,94.84
2016-09-04T01:17:46.297Z,95.03
2016-09-04T01:18:46.266Z,94.93
2016-09-04T01:19:46.239Z,95.03
2016-09-04T01:20:46.198Z,94.84
2016-09-04T01:21:45.469Z,94.84
2016-09-04T01:22:46.131Z,94.55
2016-09-04T01:23:46.102Z,94.84
2016-09-04T01:24:46.066Z,94.84
2016-09-04T01:25:46.029Z,94.84
2016-09-04T01:26:45.306Z,94.84
2016-09-04T01:27:45.971Z,94.84
2016-09-04T01:28:45.945Z,95.03
2016-09-04T01:29:45.901Z,94.84
2016-09-04T01:30:45.879Z,95.12
2016-09-04T01:31:45.839Z,94.84
2016-09-04T01:32:45.805Z,94.84
2016-09-04T01:33:45.769Z,95.12
2016-09-04T01:34:45.740Z,95.03
2016-09-04T01:35:45.702Z,94.84
2016-09-04T01:36:44.979Z,94.74
2016-09-04T01:37:45.637Z,95.12
2016-09-04T01:38:45.607Z,94.84
2016-09-04T01:39:45.574Z,94.74
2016-09-04T01:40:44.846Z,95.12
2016-09-04T01:41:45.509Z,94.74
2016-09-04T01:42:45.475Z,95.12
2016-09-04T01:43:45.447Z,94.74
2016-09-04T01:44:45.406Z,95.12
2016-09-04T01:45:44.680Z,95.22
2016-09-04T01:46:45.340Z,95.03
2016-09-04T01:47:45.309Z,95.12
2016-09-04T01:48:45.277Z,94.98
2016-09-04T01:49:45.252Z,95.07
2016-09-04T01:50:45.212Z,95.07
2016-09-04T01:51:45.181Z,95.12
2016-09-04T01:52:45.143Z,95.12
2016-09-04T01:53:45.116Z,95.32
2016-09-04T01:54:45.084Z,95.46
2016-09-04T01:55:45.047Z,95.51
2016-09-04T01:56:45.015Z,95.17
2016-09-04T01:57:44.283Z,95.7
2016-09-04T01:58:44.945Z,95.36
2016-09-04T01:59:44.917Z,95.46
2016-09-04T02:00:44.880Z,95.27
2016-09-04T02:01:44.855Z,95.07
2016-09-04T02:02:44.119Z,95.46
2016-09-04T02:03:44.780Z,95.46
2016-09-04T02:04:44.749Z,95.36
2016-09-04T02:05:44.020Z,95.46
2016-09-04T02:06:44.684Z,95.56
2016-09-04T02:07:44.651Z,95.75
2016-09-04T02:08:44.615Z,95.56
2016-09-04T02:09:44.587Z,95.84
2016-09-04T02:10:44.551Z,95.56
2016-09-04T02:11:44.515Z,95.75
2016-09-04T02:12:44.489Z,95.56
2016-09-04T02:13:43.755Z,95.46
2016-09-04T02:14:44.423Z,95.46
2016-09-04T02:15:44.382Z,95.56
2016-09-04T02:16:44.359Z,95.46
2016-09-04T02:17:44.319Z,95.56
2016-09-04T02:18:44.289Z,95.75
2016-09-04T02:19:44.259Z,95.75
2016-09-04T02:20:44.220Z,95.56
2016-09-04T02:21:44.188Z,95.75
2016-09-04T02:22:44.154Z,95.65
2016-09-04T02:23:44.121Z,95.84
2016-09-04T02:24:44.090Z,95.65
2016-09-04T02:25:44.049Z,95.56
2016-09-04T02:26:44.019Z,95.75
2016-09-04T02:27:43.987Z,95.84
2016-09-04T02:28:43.955Z,95.56
2016-09-04T02:29:43.225Z,95.65
2016-09-04T02:30:43.191Z,95.65
2016-09-04T02:31:43.853Z,96.03
2016-09-04T02:32:43.819Z,96.03
2016-09-04T02:33:43.095Z,96.03
2016-09-04T02:34:43.756Z,96.22
2016-09-04T02:35:43.720Z,95.65
2016-09-04T02:36:43.687Z,96.03
2016-09-04T02:37:42.957Z,95.94
2016-09-04T02:38:43.621Z,95.65
2016-09-04T02:39:43.588Z,96.03
2016-09-04T02:40:43.556Z,96.03
2016-09-04T02:41:43.540Z,95.84
2016-09-04T02:42:43.489Z,96.03
2016-09-04T02:43:43.458Z,95.46
2016-09-04T02:44:43.423Z,96.03
2016-09-04T02:45:42.699Z,95.65
2016-09-04T02:46:43.356Z,95.75
2016-09-04T02:47:42.623Z,96.13
2016-09-04T02:48:43.289Z,96.03
2016-09-04T02:49:43.258Z,95.84
2016-09-04T02:50:43.222Z,96.03
2016-09-04T02:51:43.187Z,96.32
2016-09-04T02:52:43.156Z,96.03
2016-09-04T02:53:43.130Z,96.13
2016-09-04T02:54:43.097Z,96.03
2016-09-04T02:55:43.056Z,96.03
2016-09-04T02:56:43.029Z,96.03
2016-09-04T02:57:42.989Z,96.42
2016-09-04T02:58:42.962Z,96.42
2016-09-04T02:59:42.925Z,96.03
2016-09-04T03:00:42.889Z,95.84
2016-09-04T03:01:42.855Z,95.94
2016-09-04T03:02:42.824Z,96.13
2016-09-04T03:03:42.789Z,96.22
2016-09-04T03:04:42.758Z,96.22
2016-09-04T03:05:42.723Z,96.22
2016-09-04T03:06:42.691Z,96.61
2016-09-04T03:07:42.657Z,95.84
2016-09-04T03:08:42.625Z,96.61
2016-09-04T03:09:42.689Z,95.75
2016-09-04T03:10:42.560Z,95.84
2016-09-04T03:11:42.524Z,95.65
2016-09-04T03:12:42.488Z,96.22
2016-09-04T03:13:41.767Z,96.03
2016-09-04T03:14:42.423Z,96.03
2016-09-04T03:15:42.392Z,95.84
2016-09-04T03:16:42.357Z,96.22
2016-09-04T03:17:41.625Z,96.22
2016-09-04T03:18:41.598Z,96.22
2016-09-04T03:19:42.258Z,96.42
2016-09-04T03:20:42.222Z,96.61
2016-09-04T03:21:42.193Z,96.61
2016-09-04T03:22:42.164Z,96.61
2016-09-04T03:23:41.430Z,96.61
2016-09-04T03:24:42.092Z,96.61
2016-09-04T03:25:42.058Z,96.56
2016-09-04T03:26:42.025Z,96.61
2016-09-04T03:27:41.991Z,96.56
2016-09-04T03:28:41.958Z,96.37
2016-09-04T03:29:41.243Z,96.37
2016-09-04T03:30:41.894Z,96.56
2016-09-04T03:31:41.860Z,96.56
2016-09-04T03:32:41.127Z,96.46
2016-09-04T03:33:41.096Z,96.46
2016-09-04T03:34:41.757Z,96.75
2016-09-04T03:35:41.780Z,96.66
2016-09-04T03:36:40.993Z,96.56
2016-09-04T03:37:40.975Z,96.56
2016-09-04T03:38:41.625Z,96.37
2016-09-04T03:39:41.594Z,96.46
2016-09-04T03:40:41.559Z,96.56
2016-09-04T03:41:41.529Z,96.17
2016-09-04T03:42:41.496Z,96.56
2016-09-04T03:43:41.461Z,96.56
2016-09-04T03:44:41.424Z,96.37
2016-09-04T03:45:41.395Z,96.37
2016-09-04T03:46:41.357Z,96.37
2016-09-04T03:47:41.328Z,96.46
2016-09-04T03:48:41.299Z,96.17
2016-09-04T03:49:40.562Z,96.27
2016-09-04T03:50:40.531Z,96.08
2016-09-04T03:51:40.495Z,95.98
2016-09-04T03:52:41.153Z,95.89
2016-09-04T03:53:41.125Z,96.08
2016-09-04T03:54:41.090Z,95.89
2016-09-04T03:55:41.057Z,96.17
2016-09-04T03:56:41.026Z,96.37
2016-09-04T03:57:40.993Z,96.37
2016-09-04T03:58:40.958Z,96.17
2016-09-04T03:59:40.931Z,96.27
2016-09-04T04:00:40.889Z,96.27
2016-09-04T04:01:40.869Z,96.17
2016-09-04T04:02:40.823Z,96.37
2016-09-04T04:03:40.790Z,96.37
2016-09-04T04:04:40.755Z,96.37
2016-09-04T04:05:40.722Z,96.17
2016-09-04T04:06:40.693Z,96.27
2016-09-04T04:07:40.656Z,96.46
2016-09-04T04:08:40.623Z,96.37
2016-09-04T04:09:40.595Z,96.56
2016-09-04T04:10:40.554Z,96.27
2016-09-04T04:11:40.519Z,96.37
2016-09-04T04:12:40.489Z,95.89
2016-09-04T04:13:39.759Z,96.17
2016-09-04T04:14:39.721Z,96.56
2016-09-04T04:15:40.392Z,96.37
2016-09-04T04:16:40.358Z,96.27
2016-09-04T04:17:40.327Z,96.27
2016-09-04T04:18:40.292Z,95.98
2016-09-04T04:19:40.253Z,96.56
2016-09-04T04:20:40.237Z,95.98
2016-09-04T04:21:40.186Z,96.17
2016-09-04T04:22:40.153Z,96.08
2016-09-04T04:23:40.123Z,96.75
2016-09-04T04:24:40.086Z,96.75
2016-09-04T04:25:40.052Z,96.27
2016-09-04T04:26:40.021Z,96.27
2016-09-04T04:27:39.988Z,96.66
2016-09-04T04:28:39.950Z,96.37
2016-09-04T04:29:39.919Z,96.56
2016-09-04T04:30:39.188Z,96.75
2016-09-04T04:31:39.853Z,96.75
2016-09-04T04:32:39.819Z,96.37
2016-09-04T04:33:39.785Z,96.46
2016-09-04T04:34:39.752Z,96.27
2016-09-04T04:35:39.720Z,96.27
2016-09-04T04:36:39.682Z,96.37
2016-09-04T04:37:39.653Z,96.37
2016-09-04T04:38:39.620Z,96.56
2016-09-04T04:39:39.591Z,96.94
2016-09-04T04:40:38.852Z,96.56
2016-09-04T04:41:38.827Z,96.56
2016-09-04T04:42:39.486Z,96.75
2016-09-04T04:43:39.449Z,97.03
2016-09-04T04:44:39.420Z,96.75
2016-09-04T04:45:38.686Z,97.08
2016-09-04T04:46:39.348Z,96.84
2016-09-04T04:47:39.315Z,97.08
2016-09-04T04:48:38.589Z,96.99
2016-09-04T04:49:38.553Z,96.99
2016-09-04T04:50:39.216Z,97.08
2016-09-04T04:51:39.184Z,96.99
2016-09-04T04:52:39.150Z,96.89
2016-09-04T04:53:38.423Z,96.89
2016-09-04T04:54:39.084Z,96.7
2016-09-04T04:55:38.355Z,96.89
2016-09-04T04:56:39.016Z,96.99
2016-09-04T04:57:38.982Z,96.89
2016-09-04T04:58:38.949Z,96.8
2016-09-04T04:59:38.918Z,96.61
2016-09-04T05:00:38.883Z,96.8
2016-09-04T05:01:38.850Z,96.42
2016-09-04T05:02:38.121Z,96.42
2016-09-04T05:03:38.784Z,96.32
2016-09-04T05:04:38.752Z,96.18
2016-09-04T05:05:38.023Z,96.51
2016-09-04T05:06:37.988Z,96.37
2016-09-04T05:07:38.655Z,95.89
2016-09-04T05:08:37.923Z,96.08
2016-09-04T05:09:38.585Z,95.61
2016-09-04T05:10:38.563Z,95.7
2016-09-04T05:11:38.520Z,95.41
2016-09-04T05:12:38.482Z,95.22
2016-09-04T05:13:38.453Z,94.74
2016-09-04T05:14:38.423Z,94.55
2016-09-04T05:15:37.692Z,93.98
2016-09-04T05:16:38.352Z,94.46
2016-09-04T05:17:38.320Z,93.98
2016-09-04T05:18:38.285Z,93.74
2016-09-04T05:19:37.556Z,93.74
2016-09-04T05:20:38.218Z,93.16
2016-09-04T05:21:38.188Z,92.97
2016-09-04T05:22:38.154Z,92.97
2016-09-04T05:23:37.425Z,92.63
2016-09-04T05:24:38.092Z,91.97
2016-09-04T05:25:38.055Z,91.53
2016-09-04T05:26:37.329Z,90.14
2016-09-04T05:27:37.990Z,89.18
2016-09-04T05:28:37.262Z,87.21
2016-09-04T05:29:37.928Z,85.72
2016-09-04T05:30:37.893Z,85.19
2016-09-04T05:31:37.860Z,84.14
2016-09-04T05:32:37.832Z,82.84
2016-09-04T05:33:37.804Z,82.07
2016-09-04T05:34:37.073Z,81.05
2016-09-04T05:35:37.739Z,80.38
2016-09-04T05:36:37.707Z,80.19
2016-09-04T05:37:36.980Z,79.13
2016-09-04T05:38:37.650Z,78.27
2016-09-04T05:39:36.920Z,77.06
2016-09-04T05:40:37.581Z,76.48
2016-09-04T05:41:36.856Z,75.65
2016-09-04T05:42:37.518Z,74.34
2016-09-04T05:43:37.493Z,73.38
2016-09-04T05:44:37.463Z,71.97
2016-09-04T05:45:36.733Z,70.86
2016-09-04T05:46:37.403Z,69.15
2016-09-04T05:47:37.371Z,68.32
2016-09-04T05:48:37.341Z,67.26
2016-09-04T05:49:37.313Z,67.07
2016-09-04T05:50:37.282Z,66.72
2016-09-04T05:51:37.258Z,66.14
2016-09-04T05:52:37.227Z,66.62
2016-09-04T05:53:37.195Z,66.33
2016-09-04T05:54:37.169Z,66.88
2016-09-04T05:55:37.142Z,66.59
2016-09-04T05:56:37.111Z,67.33
2016-09-04T05:57:37.083Z,67.13
2016-09-04T05:58:37.059Z,67.13
2016-09-04T05:59:37.027Z,67.33
2016-09-04T06:00:36.998Z,66.94
2016-09-04T06:01:36.273Z,66.85
2016-09-04T06:02:36.245Z,67.23
2016-09-04T06:03:36.928Z,67.52
2016-09-04T06:04:36.887Z,67
2016-09-04T06:05:36.165Z,67.39
2016-09-04T06:06:36.828Z,67.58
2016-09-04T06:07:36.804Z,67.83
2016-09-04T06:08:36.776Z,68.32
2016-09-04T06:09:36.744Z,68.6
2016-09-04T06:10:36.728Z,69.28
2016-09-04T06:11:36.696Z,69.53
2016-09-04T06:12:35.960Z,70.4
2016-09-04T06:13:36.629Z,70.68
2016-09-04T06:14:36.604Z,70.78
2016-09-04T06:15:36.575Z,71.42
2016-09-04T06:16:36.010Z,71.33
2016-09-04T06:17:35.821Z,72
2016-09-04T06:18:35.789Z,72.48
2016-09-04T06:19:36.456Z,72.67
2016-09-04T06:20:36.424Z,72.86
2016-09-04T06:21:36.398Z,72.67
2016-09-04T06:22:36.370Z,72.67
2016-09-04T06:23:36.350Z,72.96
2016-09-04T06:24:36.322Z,72.86
2016-09-04T06:25:35.586Z,72.58
2016-09-04T06:26:36.255Z,72.86
2016-09-04T06:27:35.525Z,72.58
2016-09-04T06:28:35.496Z,72.67
2016-09-04T06:29:35.470Z,72.9
2016-09-04T06:30:36.138Z,72.42
2016-09-04T06:31:36.106Z,72.23
2016-09-04T06:32:36.080Z,71.65
2016-09-04T06:33:36.047Z,71.75
2016-09-04T06:34:36.019Z,71.36
2016-09-04T06:35:35.293Z,71.01
2016-09-04T06:36:35.960Z,70.43
2016-09-04T06:37:35.935Z,70.56
2016-09-04T06:38:35.206Z,70.28
2016-09-04T06:39:35.874Z,69.79
2016-09-04T06:40:35.847Z,69.6
2016-09-04T06:41:35.818Z,69.06
2016-09-04T06:42:35.803Z,68.58
2016-09-04T06:43:35.069Z,68.48
2016-09-04T06:44:35.730Z,68.19
2016-09-04T06:45:35.703Z,68.1
2016-09-04T06:46:35.677Z,68.61
2016-09-04T06:47:35.640Z,68.52
2016-09-04T06:48:35.625Z,68.32
2016-09-04T06:49:34.889Z,68.42
2016-09-04T06:50:35.555Z,69.09
2016-09-04T06:51:35.531Z,68.9
2016-09-04T06:52:35.500Z,68.8
2016-09-04T06:53:35.476Z,68.8
2016-09-04T06:54:35.446Z,68.61
2016-09-04T06:55:35.414Z,67.74
2016-09-04T06:56:35.388Z,68.07
2016-09-04T06:57:35.362Z,68.55
2016-09-04T06:58:35.334Z,68.45
2016-09-04T06:59:35.303Z,68.55
2016-09-04T07:00:35.285Z,69.03
2016-09-04T07:01:34.549Z,69.9
2016-09-04T07:02:35.222Z,69.9
2016-09-04T07:03:34.498Z,70.48
2016-09-04T07:04:35.162Z,70.09
2016-09-04T07:05:35.139Z,69.45
2016-09-04T07:06:34.408Z,68.52
2016-09-04T07:07:35.080Z,67.97
2016-09-04T07:08:35.051Z,67.3
2016-09-04T07:09:35.020Z,66.27
2016-09-04T07:10:34.998Z,65.24
2016-09-04T07:11:34.272Z,64.47
2016-09-04T07:12:34.250Z,63.73
2016-09-04T07:13:34.917Z,63.05
2016-09-04T07:14:34.893Z,62.95
2016-09-04T07:15:34.861Z,63.14
2016-09-04T07:16:34.835Z,62.66
2016-09-04T07:17:34.819Z,63.05
2016-09-04T07:18:34.781Z,63.14
2016-09-04T07:19:34.058Z,63.4
2016-09-04T07:20:34.727Z,64.08
2016-09-04T07:21:34.707Z,64.18
2016-09-04T07:22:34.676Z,64.27
2016-09-04T07:23:33.952Z,64.37
2016-09-04T07:24:34.620Z,64.14
2016-09-04T07:25:34.592Z,64.72
2016-09-04T07:26:34.566Z,64.43
2016-09-04T07:27:34.542Z,64.82
2016-09-04T07:28:33.829Z,64.43
2016-09-04T07:29:34.491Z,65.11
2016-09-04T07:30:34.469Z,65.4
2016-09-04T07:31:33.737Z,65.5
2016-09-04T07:32:34.411Z,65.5
2016-09-04T07:33:34.378Z,65.5
2016-09-04T07:34:34.355Z,65.2
2016-09-04T07:35:34.336Z,65.47
2016-09-04T07:36:34.300Z,65.56
2016-09-04T07:37:34.273Z,66.14
2016-09-04T07:38:34.243Z,66.43
2016-09-04T07:39:34.218Z,66.88
2016-09-04T07:40:33.491Z,66.49
2016-09-04T07:41:34.170Z,66.97
2016-09-04T07:42:33.437Z,66.97
2016-09-04T07:43:33.411Z,67.27
2016-09-04T07:44:34.081Z,66.97
2016-09-04T07:45:34.055Z,67.65
2016-09-04T07:46:34.026Z,67.46
2016-09-04T07:47:33.999Z,67.46
2016-09-04T07:48:33.274Z,67.36
2016-09-04T07:49:33.940Z,67.27
2016-09-04T07:50:33.915Z,67.46
2016-09-04T07:51:33.888Z,67.65
2016-09-04T07:52:33.166Z,67.65
2016-09-04T07:53:33.833Z,67.65
2016-09-04T07:54:33.805Z,67.46
2016-09-04T07:55:33.780Z,67.07
2016-09-04T07:56:33.752Z,67.46
2016-09-04T07:57:33.721Z,66.88
2016-09-04T07:58:33.714Z,66.63
2016-09-04T07:59:32.972Z,65.4
2016-09-04T08:00:33.645Z,63.98
2016-09-04T08:01:33.621Z,63.89
2016-09-04T08:02:33.584Z,62.66
2016-09-04T08:03:33.566Z,61.82
2016-09-04T08:04:33.540Z,61.33
2016-09-04T08:05:33.508Z,60.88
2016-09-04T08:06:33.483Z,61.08
2016-09-04T08:07:33.457Z,60.78
2016-09-04T08:08:33.428Z,60.5
2016-09-04T08:09:33.404Z,59.91
2016-09-04T08:10:33.378Z,58.69
2016-09-04T08:11:33.347Z,56.49
2016-09-04T08:12:33.331Z,53.44
2016-09-04T08:13:33.302Z,50.34
2016-09-04T08:14:33.272Z,47.71
2016-09-04T08:15:33.245Z,45.44
2016-09-04T08:16:33.216Z,44.68
2016-09-04T08:17:33.195Z,44.21
2016-09-04T08:18:33.171Z,44.51
2016-09-04T08:19:33.148Z,45.26
2016-09-04T08:20:33.123Z,45.34
2016-09-04T08:21:33.099Z,45.51
2016-09-04T08:22:33.077Z,45.59
2016-09-04T08:23:33.049Z,45.68
2016-09-04T08:24:33.023Z,44.71
2016-09-04T08:25:32.999Z,42.61
2016-09-04T08:26:32.976Z,39.45
2016-09-04T08:27:32.261Z,36.59
2016-09-04T08:28:32.931Z,33.54
2016-09-04T08:29:32.915Z,31.07
2016-09-04T08:30:32.886Z,29.14
2016-09-04T08:31:32.863Z,27.61
2016-09-04T08:32:32.841Z,27.34
2016-09-04T08:33:32.819Z,26.75
2016-09-04T08:34:32.794Z,26.07
2016-09-04T08:35:32.808Z,25.18
2016-09-04T08:36:32.755Z,24.2
2016-09-04T08:37:32.733Z,23.91
2016-09-04T08:38:32.714Z,23.92
2016-09-04T08:39:32.692Z,24.3
2016-09-04T08:40:32.680Z,24.1
2016-09-04T08:41:32.653Z,23.62
2016-09-04T08:42:32.630Z,24.41
2016-09-04T08:43:31.915Z,24.11
2016-09-04T08:44:32.592Z,24.98
2016-09-04T08:45:32.580Z,25.37
2016-09-04T08:46:32.554Z,24.87
2016-09-04T08:47:32.534Z,24.97
2016-09-04T08:48:32.511Z,26.23
2016-09-04T08:49:32.492Z,27.08
2016-09-04T08:50:32.472Z,28.72
2016-09-04T08:51:31.756Z,30.53
2016-09-04T08:52:31.741Z,31.96
2016-09-04T08:53:31.721Z,33.12
2016-09-04T08:54:32.393Z,34.34
2016-09-04T08:55:31.670Z,35.38
2016-09-04T08:56:32.358Z,36.83
2016-09-04T08:57:31.634Z,38.45
2016-09-04T08:58:32.308Z,39.31
2016-09-04T08:59:32.285Z,40.47
2016-09-04T09:00:31.564Z,40.81
2016-09-04T09:01:32.242Z,42.16
2016-09-04T09:02:32.217Z,42.72
2016-09-04T09:03:32.212Z,43.38
2016-09-04T09:04:32.175Z,44.14
2016-09-04T09:05:32.151Z,44.92
2016-09-04T09:06:32.126Z,45.28
2016-09-04T09:07:32.109Z,45.84
2016-09-04T09:08:32.084Z,46.33
2016-09-04T09:09:32.059Z,47.08
2016-09-04T09:10:32.033Z,47.28
2016-09-04T09:11:32.011Z,48.22
2016-09-04T09:12:31.987Z,49.46
2016-09-04T09:13:31.961Z,49.27
2016-09-04T09:14:31.936Z,50.04
2016-09-04T09:15:31.216Z,50.14
2016-09-04T09:16:31.892Z,50.41
2016-09-04T09:17:31.167Z,50.7
2016-09-04T09:18:31.142Z,51.18
2016-09-04T09:19:31.814Z,51.09
2016-09-04T09:20:31.790Z,51.35
2016-09-04T09:21:31.767Z,50.89
2016-09-04T09:22:31.739Z,50.96
2016-09-04T09:23:31.716Z,51.35
2016-09-04T09:24:31.688Z,50.96
2016-09-04T09:25:31.661Z,51.06
2016-09-04T09:26:31.640Z,51.35
2016-09-04T09:27:30.915Z,50.96
2016-09-04T09:28:31.587Z,50.5
2016-09-04T09:29:31.560Z,50.7
2016-09-04T09:30:31.541Z,50.5
2016-09-04T09:31:31.523Z,50.12
2016-09-04T09:32:31.486Z,50.14
2016-09-04T09:33:31.459Z,49.49
2016-09-04T09:34:30.745Z,48.9
2016-09-04T09:35:31.409Z,48.05
2016-09-04T09:36:30.685Z,46.62
2016-09-04T09:37:31.361Z,46.42
2016-09-04T09:38:30.637Z,45.38
2016-09-04T09:39:31.317Z,45.01
2016-09-04T09:40:31.281Z,43.85
2016-09-04T09:41:31.259Z,43.48
2016-09-04T09:42:30.539Z,42.8
2016-09-04T09:43:31.215Z,43.87
2016-09-04T09:44:31.180Z,44.92
2016-09-04T09:45:31.162Z,45.09
2016-09-04T09:46:31.134Z,45.48
2016-09-04T09:47:31.111Z,45.67
2016-09-04T09:48:30.595Z,45.48
2016-09-04T09:49:31.114Z,45.87
2016-09-04T09:50:30.340Z,46.35
2016-09-04T09:51:31.011Z,46.52
2016-09-04T09:52:30.989Z,46.79
2016-09-04T09:53:30.970Z,46.42
2016-09-04T09:54:30.938Z,47.4
2016-09-04T09:55:30.913Z,47.59
2016-09-04T09:56:30.900Z,48.18
2016-09-04T09:57:30.863Z,49.02
2016-09-04T09:58:30.142Z,49.12
2016-09-04T09:59:30.825Z,50.07
2016-09-04T10:00:30.788Z,51.11
2016-09-04T10:01:30.766Z,51.09
2016-09-04T10:02:30.740Z,51.86
2016-09-04T10:03:30.715Z,52.51
2016-09-04T10:04:30.691Z,53.19
2016-09-04T10:05:30.662Z,53.77
2016-09-04T10:06:30.641Z,55.1
2016-09-04T10:07:30.615Z,55.85
2016-09-04T10:08:30.593Z,55.85
2016-09-04T10:09:30.563Z,56.79
2016-09-04T10:10:30.540Z,57.95
2016-09-04T10:11:30.513Z,58.5
2016-09-04T10:12:29.795Z,58.5
2016-09-04T10:13:29.764Z,58.4
2016-09-04T10:14:30.435Z,57.76
2016-09-04T10:15:29.712Z,57.46
2016-09-04T10:16:29.688Z,56.34
2016-09-04T10:17:30.355Z,56.43
2016-09-04T10:18:30.329Z,54.91
2016-09-04T10:19:30.307Z,54.52
2016-09-04T10:20:29.581Z,54.43
2016-09-04T10:21:30.257Z,53.85
2016-09-04T10:22:30.237Z,53.29
2016-09-04T10:23:30.198Z,52.42
2016-09-04T10:24:30.178Z,52.44
2016-09-04T10:25:30.151Z,52.56
2016-09-04T10:26:30.126Z,52.08
2016-09-04T10:27:30.097Z,52.18
2016-09-04T10:28:30.071Z,51.62
2016-09-04T10:29:29.352Z,51.91
2016-09-04T10:30:30.019Z,51.23
2016-09-04T10:31:30.004Z,51.62
2016-09-04T10:32:29.971Z,51.33
2016-09-04T10:33:29.945Z,51.43
2016-09-04T10:34:29.918Z,50.68
2016-09-04T10:35:29.896Z,50.77
2016-09-04T10:36:29.868Z,50.19
2016-09-04T10:37:29.840Z,50.12
2016-09-04T10:38:29.820Z,50.48
2016-09-04T10:39:29.791Z,50.09
2016-09-04T10:40:29.764Z,50.6
2016-09-04T10:41:29.743Z,50.38
2016-09-04T10:42:29.715Z,49.71
2016-09-04T10:43:29.693Z,49.34
2016-09-04T10:44:28.974Z,49.63
2016-09-04T10:45:29.641Z,49.54
2016-09-04T10:46:29.620Z,49.63
2016-09-04T10:47:29.588Z,49.54
2016-09-04T10:48:28.868Z,49.63
2016-09-04T10:49:28.842Z,49.82
2016-09-04T10:50:29.511Z,49.63
2016-09-04T10:51:28.790Z,49.44
2016-09-04T10:52:29.472Z,49.12
2016-09-04T10:53:28.742Z,49.22
2016-09-04T10:54:29.412Z,49.32
2016-09-04T10:55:29.390Z,49.61
2016-09-04T10:56:29.368Z,49.71
2016-09-04T10:57:28.640Z,50.07
2016-09-04T10:58:29.312Z,50.16
2016-09-04T10:59:29.286Z,50.26
2016-09-04T11:00:28.563Z,50.07
2016-09-04T11:01:29.234Z,50.07
2016-09-04T11:02:29.209Z,50.16
2016-09-04T11:03:29.183Z,50.36
2016-09-04T11:04:29.158Z,50.65
2016-09-04T11:05:29.131Z,50.26
2016-09-04T11:06:28.413Z,49.9
2016-09-04T11:07:29.085Z,49.61
2016-09-04T11:08:29.058Z,49.54
2016-09-04T11:09:29.038Z,50.31
2016-09-04T11:10:28.310Z,49.24
2016-09-04T11:11:28.980Z,49.27
2016-09-04T11:12:28.956Z,49.54
2016-09-04T11:13:28.238Z,50.09
2016-09-04T11:14:28.908Z,50.6
2016-09-04T11:15:28.881Z,50.7
2016-09-04T11:16:28.854Z,50.68
2016-09-04T11:17:28.882Z,50.29
2016-09-04T11:18:28.819Z,50.68
2016-09-04T11:19:28.781Z,50.68
2016-09-04T11:20:28.757Z,51.26
2016-09-04T11:21:28.728Z,51.14
2016-09-04T11:22:28.707Z,51.91
2016-09-04T11:23:28.679Z,51.43
2016-09-04T11:24:28.653Z,51.23
2016-09-04T11:25:27.933Z,51.62
2016-09-04T11:26:28.603Z,51.98
2016-09-04T11:27:28.578Z,51.79
2016-09-04T11:28:28.560Z,52.28
2016-09-04T11:29:28.529Z,52.28
2016-09-04T11:30:28.504Z,52.56
2016-09-04T11:31:28.477Z,52.66
2016-09-04T11:32:28.447Z,52.86
2016-09-04T11:33:28.423Z,53.51
2016-09-04T11:34:28.401Z,54.26
2016-09-04T11:35:28.372Z,54.84
2016-09-04T11:36:28.350Z,55.32
2016-09-04T11:37:28.321Z,55.62
2016-09-04T11:38:28.296Z,55.58
2016-09-04T11:39:28.277Z,56.94
2016-09-04T11:40:28.247Z,57.04
2016-09-04T11:41:28.225Z,57.11
2016-09-04T11:42:28.196Z,57.98
2016-09-04T11:43:28.169Z,57.79
2016-09-04T11:44:28.142Z,57.88
2016-09-04T11:45:27.417Z,57.3
2016-09-04T11:46:28.090Z,57.79
2016-09-04T11:47:28.066Z,57.79
2016-09-04T11:48:28.034Z,57.59
2016-09-04T11:49:28.008Z,57.88
2016-09-04T11:50:28.001Z,58.47
2016-09-04T11:51:27.264Z,58.75
2016-09-04T11:52:27.933Z,58.47
2016-09-04T11:53:27.907Z,58.47
2016-09-04T11:54:27.882Z,58.63
2016-09-04T11:55:27.853Z,59.23
2016-09-04T11:56:27.830Z,59.5
2016-09-04T11:57:27.812Z,59.4
2016-09-04T11:58:27.776Z,59.5
2016-09-04T11:59:27.757Z,59.89
2016-09-04T12:00:27.722Z,60.08
2016-09-04T12:01:27.698Z,60.85
2016-09-04T12:02:27.671Z,60.82
2016-09-04T12:03:27.643Z,60.72
2016-09-04T12:04:26.918Z,60.53
2016-09-04T12:05:26.893Z,60.92
2016-09-04T12:06:27.565Z,60.53
2016-09-04T12:07:27.539Z,61.11
2016-09-04T12:08:27.515Z,61.11
2016-09-04T12:09:27.490Z,60.82
2016-09-04T12:10:26.762Z,60.72
2016-09-04T12:11:26.738Z,60.72
2016-09-04T12:12:26.707Z,60.92
2016-09-04T12:13:27.379Z,60.63
2016-09-04T12:14:27.351Z,60.63
2016-09-04T12:15:27.327Z,60.44
2016-09-04T12:16:27.299Z,60.82
2016-09-04T12:17:27.271Z,60.72
2016-09-04T12:18:27.242Z,60.69
2016-09-04T12:19:27.222Z,60.69
2016-09-04T12:20:27.189Z,60.82
2016-09-04T12:21:27.162Z,61.11
2016-09-04T12:22:27.147Z,60.82
2016-09-04T12:23:27.120Z,60.69
2016-09-04T12:24:27.081Z,60.34
2016-09-04T12:25:27.057Z,60.34
2016-09-04T12:26:27.033Z,60.82
2016-09-04T12:27:27.011Z,60.63
2016-09-04T12:28:26.973Z,60.34
2016-09-04T12:29:26.252Z,59.95
2016-09-04T12:30:26.925Z,59.76
2016-09-04T12:31:26.894Z,60.44
2016-09-04T12:32:26.868Z,60.14
2016-09-04T12:33:26.843Z,59.95
2016-09-04T12:34:26.817Z,59.95
2016-09-04T12:35:26.783Z,59.76
2016-09-04T12:36:26.762Z,60.17
2016-09-04T12:37:26.733Z,59.79
2016-09-04T12:38:26.705Z,59.79
2016-09-04T12:39:26.681Z,59.89
2016-09-04T12:40:26.652Z,60.17
2016-09-04T12:41:26.626Z,59.89
2016-09-04T12:42:26.605Z,60.17
2016-09-04T12:43:26.571Z,59.69
2016-09-04T12:44:26.551Z,60.21
2016-09-04T12:45:26.517Z,59.72
2016-09-04T12:46:26.494Z,59.33
2016-09-04T12:47:26.465Z,59.23
2016-09-04T12:48:26.485Z,58.65
2016-09-04T12:49:26.412Z,58.27
2016-09-04T12:50:25.689Z,58.11
2016-09-04T12:51:26.368Z,57.91
2016-09-04T12:52:26.334Z,57.71
2016-09-04T12:53:26.306Z,58.3
2016-09-04T12:54:26.279Z,57.91